Time;durP1;ratioP1;P1;durP2;ratioP2;P2;SDS_P1;SDS_P2;PMS_P1;PMS_P2;Temp;Humidity;BMP_temperature;BMP_pressure;BME280_temperature;BME280_humidity;BME280_pressure;Samples;Min_cycle;Max_cycle;Signal;HPM_P1;HPM_P2
2022/01/24 00:02:20;;;;;;;17.98;2.00;;;;;;;5.87;88.57;101771.13;5065858;28;20020;-73
2022/01/24 00:04:48;;;;;;;16.00;3.50;;;;;;;5.86;88.33;101755.63;5065876;28;20039;-74
2022/01/24 00:07:17;;;;;;;12.00;2.72;;;;;;;5.96;88.19;101767.97;5047975;28;20032;-74
2022/01/24 00:09:42;;;;;;;7.72;2.38;;;;;;;5.95;88.06;101763.66;5065764;28;20603;-73
2022/01/24 00:17:39;;;;;;;7.43;2.58;;;;;;;5.88;87.83;101770.31;5066071;28;20036;-73
2022/01/24 00:28:04;;;;;;;11.90;3.22;;;;;;;5.86;87.67;101769.41;5065489;28;20102;-73
2022/01/24 00:30:29;;;;;;;10.10;3.22;;;;;;;5.81;87.82;101756.31;5065608;28;20469;-73
2022/01/24 00:32:55;;;;;;;11.18;2.38;;;;;;;5.86;87.57;101760.78;5065371;28;20083;-73
2022/01/24 00:35:20;;;;;;;7.78;2.30;;;;;;;5.85;87.76;101741.84;5065230;28;20076;-74
2022/01/24 00:37:46;;;;;;;2.88;1.13;;;;;;;5.87;87.66;101758.25;5047408;28;20029;-75
2022/01/24 00:40:12;;;;;;;11.35;2.28;;;;;;;5.88;87.40;101759.13;5065384;28;20047;-73
2022/01/24 00:42:54;;;;;;;5.82;2.10;;;;;;;5.85;87.20;101752.16;5064875;28;20021;-73
2022/01/24 00:55:54;;;;;;;9.52;1.83;;;;;;;5.78;86.54;101737.34;5065258;28;20028;-74
2022/01/24 00:58:19;;;;;;;12.27;2.15;;;;;;;5.79;86.50;101736.50;5064610;28;20104;-72
2022/01/24 01:00:44;;;;;;;6.95;1.77;;;;;;;5.75;86.59;101737.22;5065031;28;20029;-72
2022/01/24 01:03:10;;;;;;;16.27;2.50;;;;;;;5.73;86.74;101736.31;5064708;28;20021;-73
2022/01/24 01:18:50;;;;;;;15.75;2.92;;;;;;;5.66;87.33;101724.91;5064943;28;20055;-73
2022/01/24 01:21:16;;;;;;;10.02;2.78;;;;;;;5.75;87.53;101734.66;5064573;28;20025;-74
2022/01/24 01:23:47;;;;;;;5.03;1.92;;;;;;;5.73;87.31;101721.72;5064442;28;20025;-73
2022/01/24 01:29:22;;;;;;;12.52;2.25;;;;;;;5.59;87.53;101710.97;5021790;28;20496;-74
2022/01/24 01:53:45;;;;;;;13.13;2.13;;;;;;;5.54;88.56;101708.22;5021247;28;20041;-73
2022/01/24 01:56:09;;;;;;;12.27;2.13;;;;;;;5.48;88.60;101702.84;5021388;28;20042;-72
2022/01/24 01:58:35;;;;;;;8.85;1.75;;;;;;;5.45;89.00;101693.34;5021316;28;20030;-74
2022/01/24 02:01:03;;;;;;;7.30;2.78;;;;;;;5.37;89.11;101699.91;5021355;28;20022;-71
2022/01/24 02:03:29;;;;;;;9.80;2.60;;;;;;;5.42;89.19;101703.53;5028902;28;20144;-72
2022/01/24 02:05:55;;;;;;;6.72;2.13;;;;;;;5.41;89.25;101704.38;5063595;28;20108;-72
2022/01/24 02:08:29;;;;;;;7.35;2.13;;;;;;;5.41;89.48;101712.09;5063667;28;20081;-71
2022/01/24 02:10:56;;;;;;;8.02;1.80;;;;;;;5.38;89.39;101712.00;5045886;28;20036;-71
2022/01/24 02:13:25;;;;;;;8.23;2.45;;;;;;;5.43;89.22;101710.44;5045417;28;20051;-71
2022/01/24 02:18:37;;;;;;;13.55;2.92;;;;;;;5.29;89.52;101691.03;5063602;28;20407;-71
2022/01/24 02:23:41;;;;;;;12.02;2.63;;;;;;;5.33;89.53;101716.09;5063555;28;20029;-72
2022/01/24 02:26:10;;;;;;;12.90;4.20;;;;;;;5.33;89.57;101713.53;5045282;28;20036;-72
2022/01/24 02:33:48;;;;;;;11.40;2.33;;;;;;;5.28;89.65;101721.09;5063330;28;20039;-72
2022/01/24 02:36:19;;;;;;;15.40;2.50;;;;;;;5.19;89.67;101701.03;5063221;28;20045;-71
2022/01/24 02:39:09;;;;;;;13.77;3.20;;;;;;;5.30;89.42;101721.16;5063238;28;20103;-73
2022/01/24 02:49:47;;;;;;;9.70;1.73;;;;;;;5.29;89.11;101716.78;5067190;28;20059;-73
2022/01/24 02:52:14;;;;;;;10.07;2.90;;;;;;;5.30;88.95;101711.69;5049193;28;20017;-73
2022/01/24 02:54:41;;;;;;;15.45;3.45;;;;;;;5.32;88.71;101711.75;5067160;28;20029;-73
2022/01/24 02:57:08;;;;;;;15.75;3.60;;;;;;;5.26;88.62;101698.66;5067049;28;20025;-73
2022/01/24 02:59:34;;;;;;;8.68;2.85;;;;;;;5.35;88.48;101718.72;5067209;28;20028;-74
2022/01/24 03:02:01;;;;;;;11.32;2.95;;;;;;;5.28;88.30;101704.75;5065712;28;20024;-72
2022/01/24 03:04:26;;;;;;;8.48;1.95;;;;;;;5.26;88.47;101701.25;5049131;28;20051;-73
2022/01/24 03:06:52;;;;;;;12.52;3.92;;;;;;;5.30;88.38;101714.28;5067456;28;20036;-72
2022/01/24 03:09:18;;;;;;;21.77;3.50;;;;;;;5.17;88.19;101686.38;5067185;28;20059;-72
2022/01/24 03:14:20;;;;;;;11.52;3.05;;;;;;;5.14;88.33;101707.75;5066966;28;20029;-72
2022/01/24 03:16:46;;;;;;;14.02;2.60;;;;;;;5.04;88.32;101685.06;5066977;28;20033;-72
2022/01/24 03:19:13;;;;;;;17.08;2.60;;;;;;;5.11;88.55;101702.50;5066616;28;20028;-72
2022/01/24 03:21:38;;;;;;;11.23;2.00;;;;;;;5.02;88.74;101685.00;5066709;28;20082;-73
2022/01/24 03:24:04;;;;;;;16.88;2.58;;;;;;;5.07;88.63;101700.59;5066697;28;20169;-73
2022/01/24 03:26:29;;;;;;;9.40;2.47;;;;;;;5.01;88.89;101706.44;5066907;28;20032;-71
2022/01/24 03:28:55;;;;;;;9.65;2.75;;;;;;;4.96;89.18;101695.97;5066530;28;20025;-71
2022/01/24 03:31:20;;;;;;;12.38;3.53;;;;;;;5.01;88.95;101708.13;5066356;28;20445;-72
2022/01/24 03:33:45;;;;;;;17.50;3.45;;;;;;;5.02;88.93;101709.84;5066373;28;20036;-73
2022/01/24 03:36:11;;;;;;;15.70;2.72;;;;;;;5.02;89.15;101709.84;5066481;28;20049;-72
2022/01/24 03:38:36;;;;;;;18.73;3.58;;;;;;;5.07;88.64;101719.50;5066753;28;20029;-72
2022/01/24 03:41:02;;;;;;;12.68;2.72;;;;;;;5.07;88.88;101714.38;5066730;28;20024;-70
2022/01/24 03:43:30;;;;;;;15.85;3.38;;;;;;;5.05;88.81;101708.28;5066163;28;20028;-72
2022/01/24 03:48:40;;;;;;;12.75;2.92;;;;;;;4.94;88.95;101692.47;5066298;28;20025;-71
2022/01/24 03:51:06;;;;;;;15.30;3.10;;;;;;;4.94;88.79;101687.31;5066404;28;20017;-70
2022/01/24 03:53:32;;;;;;;14.75;3.08;;;;;;;5.01;89.08;101697.81;5066130;28;20027;-73
2022/01/24 03:55:57;;;;;;;23.05;3.40;;;;;;;5.03;89.20;101693.63;5066286;28;20035;-73
2022/01/24 03:58:22;;;;;;;13.60;1.75;;;;;;;4.96;89.08;101688.25;5066007;28;20028;-71
2022/01/24 04:00:48;;;;;;;21.15;3.83;;;;;;;5.00;89.09;101694.34;5065090;28;20029;-71
2022/01/24 04:03:14;;;;;;;15.15;3.13;;;;;;;4.95;89.00;101693.34;5065771;28;20024;-71
2022/01/24 04:05:41;;;;;;;22.42;4.28;;;;;;;4.92;89.13;101696.66;5047967;28;20049;-72
2022/01/24 04:08:06;;;;;;;10.88;3.05;;;;;;;4.86;89.23;101685.28;5066198;28;20027;-71
2022/01/24 04:10:41;;;;;;;15.55;3.28;;;;;;;4.93;89.68;101695.88;5048071;28;20081;-69
2022/01/24 04:13:19;;;;;;;16.25;3.42;;;;;;;4.92;89.33;101696.66;5047760;28;20013;-70
2022/01/24 04:15:58;;;;;;;16.38;3.10;;;;;;;4.91;89.35;101687.19;5065910;28;20107;-70
2022/01/24 04:21:33;;;;;;;9.65;2.70;;;;;;;4.78;89.40;101683.31;5065844;28;20484;-70
2022/01/24 04:24:17;;;;;;;19.23;4.05;;;;;;;4.84;89.36;101692.94;5065692;28;20066;-70
2022/01/24 04:26:43;;;;;;;15.50;4.10;;;;;;;4.92;89.25;101712.09;5065400;28;20036;-71
2022/01/24 04:29:08;;;;;;;7.78;2.10;;;;;;;4.79;89.34;101679.03;5065431;28;20095;-71
2022/01/24 04:31:34;;;;;;;18.83;3.60;;;;;;;4.76;89.71;101679.78;5065458;28;20021;-72
2022/01/24 04:34:00;;;;;;;8.38;3.22;;;;;;;4.73;89.82;101668.53;5065558;28;20029;-71
2022/01/24 04:36:27;;;;;;;16.85;3.20;;;;;;;4.74;89.95;101671.16;5065394;28;20452;-71
2022/01/24 04:38:53;;;;;;;12.63;2.70;;;;;;;4.79;90.20;101682.47;5047411;28;20085;-71
2022/01/24 04:41:29;;;;;;;13.82;3.05;;;;;;;4.77;90.07;101670.38;5047447;28;20021;-72
2022/01/24 04:44:32;;;;;;;10.40;3.22;;;;;;;4.79;90.35;101664.47;5065188;28;20025;-71
2022/01/24 04:54:43;;;;;;;13.38;3.85;;;;;;;4.75;90.62;101662.63;5065051;28;20036;-71
2022/01/24 04:57:13;;;;;;;13.73;5.45;;;;;;;4.72;90.77;101654.78;5064784;28;20017;-71
2022/01/24 04:59:40;;;;;;;9.90;2.78;;;;;;;4.71;90.65;101656.47;5065056;28;20108;-71
2022/01/24 05:02:06;;;;;;;16.70;4.10;;;;;;;4.73;90.63;101658.25;5047021;28;20013;-72
2022/01/24 05:04:32;;;;;;;14.10;2.58;;;;;;;4.57;90.62;101643.13;5064989;28;20055;-71
2022/01/24 05:06:58;;;;;;;14.38;3.83;;;;;;;4.65;90.86;101666.53;5064833;28;20025;-71
2022/01/24 05:09:24;;;;;;;12.85;3.28;;;;;;;4.64;91.02;101654.50;5046982;28;20070;-73
2022/01/24 05:12:09;;;;;;;15.43;2.40;;;;;;;4.65;91.03;101666.53;5064613;28;20029;-72
2022/01/24 05:25:31;;;;;;;7.40;2.05;;;;;;;4.53;90.95;101648.09;5064849;28;20032;-72
2022/01/24 05:27:56;;;;;;;8.25;2.25;;;;;;;4.50;90.98;101645.41;5064692;28;20040;-72
2022/01/24 05:30:22;;;;;;;9.55;1.90;;;;;;;4.59;90.79;101656.91;5064863;28;20043;-71
2022/01/24 05:32:47;;;;;;;2.40;0.85;;;;;;;4.57;90.95;101665.38;5064165;28;20496;-72
2022/01/24 05:35:13;;;;;;;8.75;1.98;;;;;;;4.37;90.82;101634.69;5063895;28;20099;-73
2022/01/24 05:37:39;;;;;;;6.30;2.50;;;;;;;4.50;91.30;101659.16;5064121;28;20025;-72
2022/01/24 05:40:05;;;;;;;6.78;2.83;;;;;;;4.42;91.22;101651.16;5064131;28;20025;-73
2022/01/24 05:42:30;;;;;;;4.55;1.60;;;;;;;4.46;91.13;101668.44;5045479;28;20020;-72
2022/01/24 05:44:58;;;;;;;6.20;2.08;;;;;;;4.49;90.96;101662.53;5064210;28;20056;-73
2022/01/24 05:47:23;;;;;;;5.85;2.03;;;;;;;4.38;90.93;101651.00;5063991;28;20025;-72
2022/01/24 05:49:48;;;;;;;5.82;1.42;;;;;;;4.46;90.90;101668.44;5063965;28;20043;-72
2022/01/24 05:52:14;;;;;;;12.93;2.78;;;;;;;4.46;90.93;101665.88;5063820;28;20080;-72
2022/01/24 05:54:40;;;;;;;3.70;1.48;;;;;;;4.38;90.73;101648.41;5064159;28;20028;-75
2022/01/24 05:57:06;;;;;;;8.00;2.05;;;;;;;4.45;90.80;101669.28;5063732;28;20085;-75
2022/01/24 05:59:32;;;;;;;24.25;2.88;;;;;;;4.47;90.69;101675.31;5046064;28;20509;-75
2022/01/24 06:01:58;;;;;;;10.93;1.92;;;;;;;4.40;90.63;101660.50;5063734;28;20051;-74
2022/01/24 06:04:23;;;;;;;13.30;3.17;;;;;;;4.51;90.50;101678.00;5063708;28;20488;-74
2022/01/24 06:06:49;;;;;;;12.00;2.13;;;;;;;4.49;90.76;101677.97;5063834;28;20033;-75
2022/01/24 06:09:14;;;;;;;8.55;1.48;;;;;;;4.52;90.53;101669.50;5045835;28;20053;-74
2022/01/24 06:11:40;;;;;;;7.57;1.83;;;;;;;4.51;90.71;101680.59;5063641;28;20031;-74
2022/01/24 06:14:05;;;;;;;13.00;2.03;;;;;;;4.49;90.28;101669.38;5063912;28;20021;-70
2022/01/24 06:16:31;;;;;;;12.25;1.85;;;;;;;4.52;90.44;101672.94;5063899;28;20029;-76
2022/01/24 06:18:56;;;;;;;7.72;1.75;;;;;;;4.56;90.46;101672.25;5064286;28;20028;-76
2022/01/24 06:21:22;;;;;;;9.80;1.98;;;;;;;4.55;90.22;101669.63;5063594;28;20025;-76
2022/01/24 06:23:48;;;;;;;8.60;2.17;;;;;;;4.59;90.22;101677.50;5063383;28;20053;-74
2022/01/24 06:26:14;;;;;;;7.20;1.50;;;;;;;4.55;90.23;101654.19;5063452;28;20021;-74
2022/01/24 06:28:39;;;;;;;14.30;2.65;;;;;;;4.59;90.14;101664.63;5063204;28;20021;-74
2022/01/24 06:31:05;;;;;;;10.20;1.83;;;;;;;4.60;90.19;101668.06;5063824;28;20151;-74
2022/01/24 06:33:30;;;;;;;10.55;2.30;;;;;;;4.62;90.21;101681.00;5045283;28;20029;-76
2022/01/24 06:35:56;;;;;;;5.50;1.83;;;;;;;4.54;90.20;101660.13;5063195;28;20044;-78
2022/01/24 06:38:21;;;;;;;11.40;2.13;;;;;;;4.62;90.17;101670.72;5063213;28;20025;-73
2022/01/24 06:40:47;;;;;;;16.42;3.33;;;;;;;4.51;90.36;101647.16;5063130;28;20052;-76
2022/01/24 06:43:12;;;;;;;14.95;3.17;;;;;;;4.59;90.43;101651.78;5062845;28;20039;-74
2022/01/24 06:45:38;;;;;;;9.02;3.15;;;;;;;4.65;90.36;101661.41;5063261;28;20021;-73
2022/01/24 06:48:03;;;;;;;18.33;3.13;;;;;;;4.62;90.28;101655.28;5063374;28;20033;-78
2022/01/24 06:50:29;;;;;;;14.52;4.10;;;;;;;4.66;90.33;101665.75;5045079;28;20098;-74
2022/01/24 06:52:54;;;;;;;14.68;4.00;;;;;;;4.66;90.31;101670.88;5044836;28;20059;-75
2022/01/24 06:55:19;;;;;;;8.93;3.55;;;;;;;4.71;90.39;101666.75;5063180;28;20048;-74
2022/01/24 06:57:45;;;;;;;16.23;3.67;;;;;;;4.73;90.22;101674.53;5062369;28;20032;-74
2022/01/24 07:00:11;;;;;;;20.50;3.28;;;;;;;4.66;89.88;101657.13;5063181;28;20025;-74
2022/01/24 07:02:36;;;;;;;19.35;3.60;;;;;;;4.59;90.04;101645.75;5044945;28;20021;-74
2022/01/24 07:05:02;;;;;;;20.75;2.65;;;;;;;4.61;90.13;101641.53;5062598;28;20025;-74
2022/01/24 07:07:28;;;;;;;8.65;2.63;;;;;;;4.63;90.20;101655.34;5062902;28;20026;-74
2022/01/24 07:09:54;;;;;;;10.63;2.95;;;;;;;4.60;90.25;101660.34;5062941;28;20052;-74
2022/01/24 07:12:19;;;;;;;15.07;3.60;;;;;;;4.57;90.56;101650.84;5044693;28;20036;-77
2022/01/24 07:14:45;;;;;;;7.85;3.33;;;;;;;4.65;90.20;101655.41;5062395;28;20025;-74
2022/01/24 07:19:39;;;;;;;11.40;3.22;;;;;;;4.66;90.32;101650.31;5062702;28;20093;-73
2022/01/24 07:22:06;;;;;;;17.30;4.60;;;;;;;4.69;90.06;101652.09;5062363;28;20025;-76
2022/01/24 07:24:32;;;;;;;17.10;5.78;;;;;;;4.58;90.06;101649.16;5062321;28;20081;-76
2022/01/24 07:26:58;;;;;;;14.98;5.38;;;;;;;4.68;90.27;101664.09;5062263;28;20053;-76
2022/01/24 07:29:24;;;;;;;14.45;4.28;;;;;;;4.69;90.41;101657.25;5062487;28;20458;-76
2022/01/24 07:31:50;;;;;;;22.02;5.30;;;;;;;4.70;90.03;101657.31;5062856;28;20052;-76
2022/01/24 07:34:16;;;;;;;12.50;4.68;;;;;;;4.70;90.21;101654.72;5062912;28;20028;-77
2022/01/24 07:36:42;;;;;;;31.02;3.83;;;;;;;4.65;90.23;101639.97;5066054;28;20049;-75
2022/01/24 07:39:08;;;;;;;28.60;3.60;;;;;;;4.74;90.06;101659.97;5066726;28;20036;-76
2022/01/24 07:41:41;;;;;;;12.38;3.72;;;;;;;4.68;90.09;101656.38;5048657;28;20027;-77
2022/01/24 07:44:07;;;;;;;9.93;2.88;;;;;;;4.75;90.10;101646.28;5066287;28;20021;-77
2022/01/24 07:46:33;;;;;;;11.75;3.10;;;;;;;4.68;89.75;101648.66;5066563;28;20021;-78
2022/01/24 07:49:01;;;;;;;14.52;4.60;;;;;;;4.80;89.66;101670.50;5048440;28;20082;-78
2022/01/24 07:51:26;;;;;;;13.57;3.58;;;;;;;4.74;89.62;101658.31;5066320;28;20470;-78
2022/01/24 07:53:51;;;;;;;10.50;4.00;;;;;;;4.76;89.28;101654.06;5048280;28;20021;-80
2022/01/24 07:56:17;;;;;;;15.30;3.20;;;;;;;4.92;89.51;101659.78;5048110;28;20025;-78
2022/01/24 07:58:44;;;;;;;21.67;3.80;;;;;;;4.88;89.05;101658.78;5065983;28;20421;-78
2022/01/24 08:01:10;;;;;;;15.52;3.50;;;;;;;4.84;88.84;101651.75;5066173;28;20082;-79
2022/01/24 08:03:35;;;;;;;24.90;4.78;;;;;;;4.88;88.76;101656.22;5048077;28;20053;-78
2022/01/24 08:06:00;;;;;;;20.10;5.43;;;;;;;4.94;88.60;101655.53;5066257;28;20055;-78
2022/01/24 08:08:26;;;;;;;11.07;4.90;;;;;;;4.89;88.35;101654.53;5066372;28;20028;-80
2022/01/24 08:10:51;;;;;;;15.38;3.85;;;;;;;4.95;87.83;101665.88;5065873;28;20291;-79
2022/01/24 08:13:17;;;;;;;18.00;5.18;;;;;;;4.99;87.79;101684.00;5065612;28;20025;-80
2022/01/24 08:15:42;;;;;;;24.45;4.38;;;;;;;5.01;87.54;101682.38;5065997;28;20052;-79
2022/01/24 08:18:09;;;;;;;12.45;3.00;;;;;;;4.92;87.13;101663.22;5047866;28;20021;-80
2022/01/24 08:20:35;;;;;;;16.10;3.65;;;;;;;4.99;86.99;101668.56;5066043;28;20081;-77
2022/01/24 08:23:00;;;;;;;17.30;4.30;;;;;;;5.00;87.05;101673.78;5047727;28;20017;-79
2022/01/24 08:25:26;;;;;;;16.17;4.00;;;;;;;5.02;86.84;101668.66;5047870;28;20021;-79
2022/01/24 08:27:52;;;;;;;11.70;3.50;;;;;;;4.92;86.77;101642.63;5065735;28;20025;-79
2022/01/24 08:30:20;;;;;;;12.68;2.67;;;;;;;5.05;86.42;101666.22;5065775;28;20040;-79
2022/01/24 08:32:46;;;;;;;16.70;3.20;;;;;;;4.99;86.00;101658.28;5064224;28;20040;-78
2022/01/24 08:35:13;;;;;;;9.90;3.10;;;;;;;4.98;86.04;101651.38;5047546;28;20261;-79
2022/01/24 08:37:39;;;;;;;17.23;3.88;;;;;;;5.07;85.65;101665.47;5065717;28;20032;-80
2022/01/24 08:40:07;;;;;;;15.70;3.15;;;;;;;5.07;85.58;101665.47;5047678;28;20084;-79
2022/01/24 08:42:52;;;;;;;13.45;3.45;;;;;;;5.06;85.53;101657.69;5065010;28;20047;-78
2022/01/24 08:48:01;;;;;;;11.70;2.75;;;;;;;5.06;85.23;101665.41;5065521;28;20032;-79
2022/01/24 08:50:27;;;;;;;16.65;3.25;;;;;;;4.99;85.19;101640.25;5047825;28;20404;-78
2022/01/24 08:52:59;;;;;;;10.70;3.05;;;;;;;5.10;85.24;101644.09;5065214;28;20028;-79
2022/01/24 08:55:26;;;;;;;11.05;3.70;;;;;;;5.04;85.12;101636.16;5047321;28;20025;-78
2022/01/24 08:57:51;;;;;;;8.85;3.15;;;;;;;5.05;85.22;101632.75;5065078;28;20043;-79
2022/01/24 09:00:17;;;;;;;16.23;5.25;;;;;;;5.03;84.89;101632.69;5047090;28;20313;-79
2022/01/24 09:02:42;;;;;;;13.68;4.13;;;;;;;5.05;84.67;101635.31;5064924;28;20032;-78
2022/01/24 09:05:08;;;;;;;21.98;4.68;;;;;;;5.12;84.72;101649.28;5064517;28;20031;-77
2022/01/24 09:07:34;;;;;;;19.33;4.07;;;;;;;5.12;84.69;101651.84;5064777;28;20099;-78
2022/01/24 09:10:00;;;;;;;16.63;4.13;;;;;;;5.09;84.37;101647.50;5047946;28;20021;-80
2022/01/24 09:12:25;;;;;;;18.13;4.30;;;;;;;5.12;84.44;101644.13;5046487;28;20104;-81
2022/01/24 09:14:52;;;;;;;14.98;4.75;;;;;;;5.11;84.27;101650.13;5064269;28;20030;-81
2022/01/24 09:17:17;;;;;;;15.32;6.15;;;;;;;5.04;84.52;101641.28;5064364;28;20060;-81
2022/01/24 09:19:43;;;;;;;23.55;5.00;;;;;;;5.02;84.83;101653.22;5064128;28;20033;-79
2022/01/24 09:22:09;;;;;;;34.05;16.38;;;;;;;5.03;85.02;101653.28;5064047;28;20017;-80
2022/01/24 09:24:36;;;;;;;21.70;8.77;;;;;;;5.03;85.15;101647.28;5046003;28;20099;-80
2022/01/24 09:27:02;;;;;;;23.55;7.93;;;;;;;5.04;85.45;101659.31;5064042;28;20024;-80
2022/01/24 09:29:28;;;;;;;26.83;7.38;;;;;;;5.04;85.46;101654.16;5045994;28;20505;-80
2022/01/24 09:31:54;;;;;;;15.20;5.20;;;;;;;5.12;85.15;101655.31;5064121;28;20036;-80
2022/01/24 09:34:22;;;;;;;22.88;5.90;;;;;;;5.01;85.38;101643.78;5045707;28;20048;-80
2022/01/24 09:36:49;;;;;;;22.10;6.82;;;;;;;5.07;85.47;101647.44;5063548;28;20102;-76
2022/01/24 09:39:15;;;;;;;23.85;6.13;;;;;;;5.03;85.49;101636.97;5063525;28;20036;-77
2022/01/24 09:41:41;;;;;;;17.60;5.32;;;;;;;5.09;85.65;101642.34;5063390;28;20017;-77
2022/01/24 09:44:07;;;;;;;15.93;5.05;;;;;;;5.03;85.61;101636.97;5045186;28;20032;-74
2022/01/24 09:46:35;;;;;;;11.27;5.60;;;;;;;4.95;85.72;101624.72;5063655;28;20531;-75
2022/01/24 09:49:00;;;;;;;18.80;5.43;;;;;;;4.92;86.07;101627.19;5063442;28;20021;-74
2022/01/24 09:51:26;;;;;;;13.85;5.88;;;;;;;4.96;86.16;101633.31;5063583;28;20052;-75
2022/01/24 09:53:51;;;;;;;22.27;6.50;;;;;;;4.91;86.30;101625.44;5063227;28;20029;-73
2022/01/24 09:56:17;;;;;;;12.95;4.18;;;;;;;4.95;86.41;101647.88;5045434;28;20354;-75
2022/01/24 09:58:43;;;;;;;15.93;5.93;;;;;;;4.93;86.68;101628.94;5062371;28;20025;-73
2022/01/24 10:01:09;;;;;;;16.85;4.47;;;;;;;4.94;86.77;101642.66;5063253;28;20043;-75
2022/01/24 10:03:35;;;;;;;20.08;6.90;;;;;;;4.87;86.87;101630.44;5063307;28;20553;-74
2022/01/24 10:06:00;;;;;;;16.83;5.43;;;;;;;4.81;86.77;101620.78;5063334;28;20025;-74
2022/01/24 10:08:26;;;;;;;12.90;6.40;;;;;;;4.88;87.29;101629.59;5063177;28;20456;-74
2022/01/24 10:10:54;;;;;;;19.13;5.70;;;;;;;4.84;87.31;101629.47;5063088;28;20049;-74
2022/01/24 10:16:31;;;;;;;16.05;5.90;;;;;;;4.80;87.26;101622.50;5063000;28;20039;-75
2022/01/24 10:18:59;;;;;;;11.85;4.88;;;;;;;4.90;87.34;101644.28;5063033;28;20055;-74
2022/01/24 10:21:25;;;;;;;22.67;6.40;;;;;;;4.94;87.31;101637.53;5063134;28;20029;-74
2022/01/24 10:23:51;;;;;;;24.98;6.43;;;;;;;4.90;87.44;101639.13;5062740;28;20517;-73
2022/01/24 10:26:16;;;;;;;25.15;6.97;;;;;;;4.83;87.53;101634.56;5063016;28;20021;-74
2022/01/24 10:28:44;;;;;;;20.75;5.35;;;;;;;4.90;87.35;101639.13;5062610;28;20021;-73
2022/01/24 10:31:09;;;;;;;22.10;6.80;;;;;;;4.87;87.58;101626.16;5062810;28;20025;-74
2022/01/24 10:34:00;;;;;;;20.85;5.90;;;;;;;4.81;87.84;101644.81;5044625;28;20074;-75
2022/01/24 10:36:44;;;;;;;26.50;6.85;;;;;;;4.82;87.89;101625.13;5062771;28;20044;-75
2022/01/24 10:39:32;;;;;;;23.13;7.20;;;;;;;4.84;88.01;101634.63;5062839;28;20028;-75
2022/01/24 10:43:01;;;;;;;26.23;6.40;;;;;;;4.83;87.97;101619.13;5062953;28;20089;-74
2022/01/24 10:45:21;;;;;;;22.30;7.05;;;;;;;4.89;88.13;101623.66;5051872;28;20521;-74
2022/01/24 10:47:50;;;;;;;11.65;4.25;;;;;;;4.87;87.98;101617.56;5062706;28;20021;-75
2022/01/24 10:50:22;;;;;;;21.27;5.25;;;;;;;4.81;88.14;101616.50;5062481;28;20035;-75
2022/01/24 10:52:47;;;;;;;21.38;7.35;;;;;;;4.77;88.46;101613.78;5062148;28;20029;-75
2022/01/24 10:55:21;;;;;;;26.83;5.75;;;;;;;4.76;88.75;101606.91;5062279;28;20036;-72
2022/01/24 10:57:56;;;;;;;11.57;4.57;;;;;;;4.65;88.61;101588.53;5062494;28;20041;-73
2022/01/24 11:00:27;;;;;;;16.98;5.90;;;;;;;4.75;88.69;101600.88;5062455;28;20051;-73
2022/01/24 11:02:55;;;;;;;16.60;5.38;;;;;;;4.76;88.83;101601.75;5044336;28;20060;-73
2022/01/24 11:05:23;;;;;;;21.05;6.13;;;;;;;4.71;88.77;101597.28;5060762;28;20029;-73
2022/01/24 11:07:58;;;;;;;22.23;5.85;;;;;;;4.69;89.24;101601.53;5044520;28;20387;-73
2022/01/24 11:10:27;;;;;;;22.02;5.72;;;;;;;4.68;89.16;101604.91;5065515;28;20028;-72
2022/01/24 11:12:53;;;;;;;22.63;6.38;;;;;;;4.62;89.15;101596.13;5065814;28;20021;-72
2022/01/24 11:15:22;;;;;;;17.73;6.38;;;;;;;4.64;88.94;101595.34;5066395;28;20036;-73
2022/01/24 11:17:48;;;;;;;13.80;4.57;;;;;;;4.67;88.90;101592.88;5066394;28;20048;-74
2022/01/24 11:20:17;;;;;;;26.33;7.53;;;;;;;4.73;89.01;101611.94;5066146;28;20036;-74
2022/01/24 11:22:52;;;;;;;27.13;7.88;;;;;;;4.76;88.96;101618.03;5047515;28;20021;-72
2022/01/24 11:25:18;;;;;;;23.50;6.65;;;;;;;4.79;89.08;101622.44;5066129;28;20029;-73
2022/01/24 11:27:47;;;;;;;18.77;7.47;;;;;;;4.83;88.95;101619.13;5065948;28;20051;-74
2022/01/24 11:30:18;;;;;;;23.30;6.28;;;;;;;4.83;89.04;101614.00;5065314;28;20029;-73
2022/01/24 11:32:56;;;;;;;17.35;5.95;;;;;;;4.77;89.08;101613.78;5064998;28;20056;-73
2022/01/24 11:35:38;;;;;;;19.95;5.30;;;;;;;4.75;89.14;101600.88;5066109;28;20064;-74
2022/01/24 11:38:04;;;;;;;11.77;4.40;;;;;;;4.75;89.53;101597.41;5065694;28;20115;-74
2022/01/24 11:40:45;;;;;;;17.88;6.00;;;;;;;4.74;89.42;101588.84;5065754;28;20085;-73
2022/01/24 11:43:47;;;;;;;12.68;3.83;;;;;;;4.71;89.87;101583.59;5047895;28;20107;-73
2022/01/24 11:46:35;;;;;;;18.95;6.22;;;;;;;4.71;89.98;101584.44;5022724;28;20036;-74
2022/01/24 11:49:06;;;;;;;13.05;4.30;;;;;;;4.73;90.04;101576.78;5047453;28;20049;-74
2022/01/24 11:51:34;;;;;;;17.90;5.50;;;;;;;4.74;90.05;101573.41;5065568;28;20040;-75
2022/01/24 11:54:01;;;;;;;23.88;6.55;;;;;;;4.66;90.01;101554.25;5065463;28;20025;-75
2022/01/24 11:56:31;;;;;;;19.52;5.45;;;;;;;4.71;90.11;101553.56;5065690;28;20029;-75
2022/01/24 11:59:22;;;;;;;18.73;6.38;;;;;;;4.81;90.34;101561.59;5065604;28;20028;-75
2022/01/24 12:02:05;;;;;;;24.83;8.57;;;;;;;4.83;90.05;101563.41;5065619;28;20021;-76
2022/01/24 12:04:50;;;;;;;25.20;7.60;;;;;;;4.90;90.05;101556.78;5047233;28;20273;-76
2022/01/24 12:07:18;;;;;;;25.65;7.85;;;;;;;4.92;90.03;101547.41;5065506;28;20025;-75
2022/01/24 12:09:44;;;;;;;28.13;7.80;;;;;;;4.95;89.92;101546.66;5065365;28;20453;-76
2022/01/24 12:12:38;;;;;;;14.77;3.45;;;;;;;4.93;90.07;101556.00;5065200;28;20108;-75
2022/01/24 12:15:07;;;;;;;20.48;5.68;;;;;;;4.88;90.20;101547.25;5065128;28;20029;-75
2022/01/24 12:17:50;;;;;;;17.30;5.15;;;;;;;4.93;90.33;101553.44;5065237;28;20116;-76
2022/01/24 12:20:30;;;;;;;19.98;6.68;;;;;;;4.94;90.09;101550.03;5064961;28;20017;-74
2022/01/24 12:23:20;;;;;;;18.13;5.97;;;;;;;4.87;90.17;101528.38;5064777;28;20100;-74
2022/01/24 12:25:56;;;;;;;24.38;8.30;;;;;;;4.93;90.20;101535.41;5051351;28;20060;-74
2022/01/24 12:28:25;;;;;;;12.38;3.88;;;;;;;4.87;90.03;101523.22;5065204;28;20024;-76
2022/01/24 12:31:26;;;;;;;13.70;3.75;;;;;;;4.84;90.27;101518.84;5065504;28;20029;-76
2022/01/24 12:33:54;;;;;;;22.50;7.18;;;;;;;4.96;90.23;101526.09;5026161;28;20047;-75
2022/01/24 12:36:50;;;;;;;33.60;7.93;;;;;;;5.08;90.17;101532.44;5064607;28;20128;-75
2022/01/24 12:39:22;;;;;;;22.23;7.95;;;;;;;5.10;90.22;101528.25;5057784;28;20048;-75
2022/01/24 12:41:55;;;;;;;29.67;7.57;;;;;;;5.04;90.17;101510.91;5047061;28;20098;-77
2022/01/24 12:47:19;;;;;;;15.80;4.78;;;;;;;5.24;89.75;101530.41;5064833;28;20033;-76
2022/01/24 12:49:46;;;;;;;21.05;7.47;;;;;;;5.23;89.45;101528.63;5046649;28;20384;-76
2022/01/24 12:52:16;;;;;;;13.30;5.45;;;;;;;5.22;89.54;101527.78;5064671;28;20168;-75
2022/01/24 12:55:00;;;;;;;20.08;7.47;;;;;;;5.24;89.53;101526.09;5064441;28;20044;-76
2022/01/24 12:57:32;;;;;;;11.07;3.25;;;;;;;5.18;89.40;101526.78;5064326;28;20086;-76
2022/01/24 13:00:07;;;;;;;23.65;6.80;;;;;;;5.24;89.52;101522.69;5064660;28;20082;-76
2022/01/24 13:02:37;;;;;;;24.13;6.28;;;;;;;5.30;89.32;101522.88;5064683;28;20025;-76
2022/01/24 13:05:14;;;;;;;18.38;5.53;;;;;;;5.34;89.44;101516.97;5046246;28;20021;-76
2022/01/24 13:07:47;;;;;;;16.05;4.90;;;;;;;5.41;88.91;101506.06;5064387;28;20029;-77
2022/01/24 13:10:15;;;;;;;12.90;4.47;;;;;;;5.36;88.62;101497.31;5064275;28;20024;-76
2022/01/24 13:12:42;;;;;;;18.88;4.50;;;;;;;5.49;88.75;101503.72;5063795;28;20063;-78
2022/01/24 13:15:23;;;;;;;26.45;5.68;;;;;;;5.50;88.65;101499.41;5064207;28;20029;-77
2022/01/24 13:21:07;;;;;;;20.10;4.90;;;;;;;5.50;88.12;101486.53;5064133;28;20055;-79
2022/01/24 13:23:33;;;;;;;15.70;4.97;;;;;;;5.49;87.77;101488.25;5063913;28;20028;-77
2022/01/24 13:25:58;;;;;;;25.75;6.90;;;;;;;5.52;87.72;101495.19;5063879;28;20088;-78
2022/01/24 13:28:24;;;;;;;29.13;7.90;;;;;;;5.53;87.68;101499.50;5063625;28;20047;-78
2022/01/24 13:30:57;;;;;;;16.80;6.47;;;;;;;5.58;87.71;101505.66;5063634;28;20029;-77
2022/01/24 13:33:25;;;;;;;24.85;6.78;;;;;;;5.55;87.39;101510.72;5044459;28;20017;-77
2022/01/24 13:35:53;;;;;;;22.75;6.20;;;;;;;5.55;87.48;101514.19;5063562;28;20255;-76
2022/01/24 13:38:20;;;;;;;19.83;6.05;;;;;;;5.59;87.40;101520.31;5045670;28;20036;-77